sensor_id;sensor_type;location;lat;lon;timestamp;P1;durP1;ratioP1;P2;durP2;ratioP2
6376;SDS011;3221;48.858;10.128;2023-07-28T00:02:15;3.23;;;2.87;;
6376;SDS011;3221;48.858;10.128;2023-07-28T00:04:42;3.90;;;3.40;;
6376;SDS011;3221;48.858;10.128;2023-07-28T00:07:09;3.67;;;3.30;;
6376;SDS011;3221;48.858;10.128;2023-07-28T00:09:36;4.33;;;3.40;;
6376;SDS011;3221;48.858;10.128;2023-07-28T00:12:03;4.70;;;3.53;;
6376;SDS011;3221;48.858;10.128;2023-07-28T00:14:31;3.87;;;3.30;;
6376;SDS011;3221;48.858;10.128;2023-07-28T00:16:57;3.53;;;3.20;;
6376;SDS011;3221;48.858;10.128;2023-07-28T00:19:25;4.73;;;3.20;;
6376;SDS011;3221;48.858;10.128;2023-07-28T00:21:52;4.47;;;3.53;;
6376;SDS011;3221;48.858;10.128;2023-07-28T00:24:20;4.23;;;3.53;;
6376;SDS011;3221;48.858;10.128;2023-07-28T00:26:47;3.90;;;3.27;;
6376;SDS011;3221;48.858;10.128;2023-07-28T00:29:13;4.37;;;2.97;;
6376;SDS011;3221;48.858;10.128;2023-07-28T00:31:40;5.67;;;3.30;;
6376;SDS011;3221;48.858;10.128;2023-07-28T00:34:08;4.97;;;3.53;;
6376;SDS011;3221;48.858;10.128;2023-07-28T00:36:34;4.37;;;3.33;;
6376;SDS011;3221;48.858;10.128;2023-07-28T00:39:02;3.73;;;2.90;;
6376;SDS011;3221;48.858;10.128;2023-07-28T00:41:29;4.20;;;3.00;;
6376;SDS011;3221;48.858;10.128;2023-07-28T00:43:56;3.30;;;3.00;;
6376;SDS011;3221;48.858;10.128;2023-07-28T00:46:24;3.53;;;2.90;;
6376;SDS011;3221;48.858;10.128;2023-07-28T00:48:51;3.90;;;3.10;;
6376;SDS011;3221;48.858;10.128;2023-07-28T00:51:19;3.77;;;2.80;;
6376;SDS011;3221;48.858;10.128;2023-07-28T00:53:45;4.23;;;3.33;;
6376;SDS011;3221;48.858;10.128;2023-07-28T00:56:12;6.57;;;3.20;;
6376;SDS011;3221;48.858;10.128;2023-07-28T00:58:41;4.13;;;2.90;;
6376;SDS011;3221;48.858;10.128;2023-07-28T01:01:08;3.33;;;3.00;;
6376;SDS011;3221;48.858;10.128;2023-07-28T01:03:35;3.77;;;3.00;;
6376;SDS011;3221;48.858;10.128;2023-07-28T01:06:17;3.37;;;3.07;;
6376;SDS011;3221;48.858;10.128;2023-07-28T01:08:53;4.30;;;3.17;;
6376;SDS011;3221;48.858;10.128;2023-07-28T01:11:25;3.07;;;2.67;;
6376;SDS011;3221;48.858;10.128;2023-07-28T01:13:52;3.33;;;3.03;;
6376;SDS011;3221;48.858;10.128;2023-07-28T01:16:19;3.17;;;2.87;;
6376;SDS011;3221;48.858;10.128;2023-07-28T01:18:48;3.27;;;2.90;;
6376;SDS011;3221;48.858;10.128;2023-07-28T01:21:22;3.37;;;2.77;;
6376;SDS011;3221;48.858;10.128;2023-07-28T01:23:59;3.57;;;2.83;;
6376;SDS011;3221;48.858;10.128;2023-07-28T01:26:30;3.07;;;2.77;;
6376;SDS011;3221;48.858;10.128;2023-07-28T01:28:59;3.53;;;2.60;;
6376;SDS011;3221;48.858;10.128;2023-07-28T01:31:27;5.43;;;3.20;;
6376;SDS011;3221;48.858;10.128;2023-07-28T01:33:54;5.30;;;2.97;;
6376;SDS011;3221;48.858;10.128;2023-07-28T01:36:22;3.10;;;2.80;;
6376;SDS011;3221;48.858;10.128;2023-07-28T01:38:49;4.53;;;3.07;;
6376;SDS011;3221;48.858;10.128;2023-07-28T01:41:16;4.40;;;3.03;;
6376;SDS011;3221;48.858;10.128;2023-07-28T01:43:43;3.33;;;3.03;;
6376;SDS011;3221;48.858;10.128;2023-07-28T01:46:09;5.60;;;2.80;;
6376;SDS011;3221;48.858;10.128;2023-07-28T01:48:37;4.10;;;3.10;;
6376;SDS011;3221;48.858;10.128;2023-07-28T01:51:03;3.43;;;2.80;;
6376;SDS011;3221;48.858;10.128;2023-07-28T01:53:30;3.90;;;3.00;;
6376;SDS011;3221;48.858;10.128;2023-07-28T01:55:57;5.70;;;2.93;;
6376;SDS011;3221;48.858;10.128;2023-07-28T01:58:24;3.20;;;2.90;;
6376;SDS011;3221;48.858;10.128;2023-07-28T02:00:51;4.47;;;2.90;;
6376;SDS011;3221;48.858;10.128;2023-07-28T02:03:18;6.13;;;2.90;;
6376;SDS011;3221;48.858;10.128;2023-07-28T02:05:44;3.27;;;2.97;;
6376;SDS011;3221;48.858;10.128;2023-07-28T02:08:11;4.13;;;2.97;;
6376;SDS011;3221;48.858;10.128;2023-07-28T02:10:38;4.93;;;2.90;;
6376;SDS011;3221;48.858;10.128;2023-07-28T02:13:05;3.13;;;2.83;;
6376;SDS011;3221;48.858;10.128;2023-07-28T02:15:33;3.20;;;2.90;;
6376;SDS011;3221;48.858;10.128;2023-07-28T02:18:00;9.40;;;3.20;;
6376;SDS011;3221;48.858;10.128;2023-07-28T02:20:27;3.43;;;3.03;;
6376;SDS011;3221;48.858;10.128;2023-07-28T02:22:54;3.40;;;3.00;;
6376;SDS011;3221;48.858;10.128;2023-07-28T02:25:22;5.73;;;2.73;;
6376;SDS011;3221;48.858;10.128;2023-07-28T02:27:49;3.43;;;2.63;;
6376;SDS011;3221;48.858;10.128;2023-07-28T02:30:18;3.00;;;2.70;;
6376;SDS011;3221;48.858;10.128;2023-07-28T02:32:45;5.20;;;3.20;;
6376;SDS011;3221;48.858;10.128;2023-07-28T02:35:12;4.60;;;2.73;;
6376;SDS011;3221;48.858;10.128;2023-07-28T02:37:39;7.03;;;2.97;;
6376;SDS011;3221;48.858;10.128;2023-07-28T02:40:07;3.07;;;2.70;;
6376;SDS011;3221;48.858;10.128;2023-07-28T02:42:34;2.83;;;2.63;;
6376;SDS011;3221;48.858;10.128;2023-07-28T02:45:02;5.07;;;2.80;;
6376;SDS011;3221;48.858;10.128;2023-07-28T02:47:29;3.33;;;2.60;;
6376;SDS011;3221;48.858;10.128;2023-07-28T02:49:57;3.77;;;2.53;;
6376;SDS011;3221;48.858;10.128;2023-07-28T02:52:24;3.07;;;2.80;;
6376;SDS011;3221;48.858;10.128;2023-07-28T02:54:51;4.73;;;2.60;;
6376;SDS011;3221;48.858;10.128;2023-07-28T02:57:18;4.10;;;2.40;;
6376;SDS011;3221;48.858;10.128;2023-07-28T02:59:47;4.70;;;2.70;;
6376;SDS011;3221;48.858;10.128;2023-07-28T03:02:16;2.67;;;2.47;;
6376;SDS011;3221;48.858;10.128;2023-07-28T03:04:43;2.90;;;2.60;;
6376;SDS011;3221;48.858;10.128;2023-07-28T03:07:17;3.40;;;2.60;;
6376;SDS011;3221;48.858;10.128;2023-07-28T03:09:50;2.93;;;2.60;;
6376;SDS011;3221;48.858;10.128;2023-07-28T03:12:17;3.53;;;3.00;;
6376;SDS011;3221;48.858;10.128;2023-07-28T03:14:44;3.10;;;2.73;;
6376;SDS011;3221;48.858;10.128;2023-07-28T03:17:11;4.37;;;2.77;;
6376;SDS011;3221;48.858;10.128;2023-07-28T03:19:38;3.13;;;2.90;;
6376;SDS011;3221;48.858;10.128;2023-07-28T03:22:05;2.57;;;2.37;;
6376;SDS011;3221;48.858;10.128;2023-07-28T03:24:32;3.10;;;2.60;;
6376;SDS011;3221;48.858;10.128;2023-07-28T03:27:01;3.93;;;2.60;;
6376;SDS011;3221;48.858;10.128;2023-07-28T03:29:27;3.67;;;2.77;;
6376;SDS011;3221;48.858;10.128;2023-07-28T03:31:56;3.10;;;2.80;;
6376;SDS011;3221;48.858;10.128;2023-07-28T03:34:23;3.40;;;3.10;;
6376;SDS011;3221;48.858;10.128;2023-07-28T03:36:51;3.70;;;3.07;;
6376;SDS011;3221;48.858;10.128;2023-07-28T03:39:18;3.37;;;2.87;;
6376;SDS011;3221;48.858;10.128;2023-07-28T03:41:47;3.80;;;2.70;;
6376;SDS011;3221;48.858;10.128;2023-07-28T03:44:14;3.20;;;2.57;;
6376;SDS011;3221;48.858;10.128;2023-07-28T03:46:42;2.70;;;2.50;;
6376;SDS011;3221;48.858;10.128;2023-07-28T03:49:09;2.67;;;2.40;;
6376;SDS011;3221;48.858;10.128;2023-07-28T03:51:36;3.00;;;2.70;;
6376;SDS011;3221;48.858;10.128;2023-07-28T03:54:03;2.90;;;2.40;;
6376;SDS011;3221;48.858;10.128;2023-07-28T03:56:31;3.00;;;2.70;;
6376;SDS011;3221;48.858;10.128;2023-07-28T03:58:58;3.53;;;2.67;;
6376;SDS011;3221;48.858;10.128;2023-07-28T04:01:26;4.03;;;2.70;;
6376;SDS011;3221;48.858;10.128;2023-07-28T04:03:53;2.77;;;2.57;;
6376;SDS011;3221;48.858;10.128;2023-07-28T04:06:19;3.07;;;2.77;;
6376;SDS011;3221;48.858;10.128;2023-07-28T04:09:13;3.83;;;2.90;;
6376;SDS011;3221;48.858;10.128;2023-07-28T04:11:41;3.10;;;2.70;;
6376;SDS011;3221;48.858;10.128;2023-07-28T04:14:08;3.37;;;2.50;;
6376;SDS011;3221;48.858;10.128;2023-07-28T04:16:35;3.80;;;2.93;;
6376;SDS011;3221;48.858;10.128;2023-07-28T04:19:02;2.80;;;2.60;;
6376;SDS011;3221;48.858;10.128;2023-07-28T04:21:29;5.27;;;2.90;;
6376;SDS011;3221;48.858;10.128;2023-07-28T04:23:56;3.40;;;2.80;;
6376;SDS011;3221;48.858;10.128;2023-07-28T04:26:24;4.37;;;2.80;;
6376;SDS011;3221;48.858;10.128;2023-07-28T04:29:02;4.13;;;3.00;;
6376;SDS011;3221;48.858;10.128;2023-07-28T04:31:30;4.50;;;2.73;;
6376;SDS011;3221;48.858;10.128;2023-07-28T04:34:02;3.57;;;3.07;;
6376;SDS011;3221;48.858;10.128;2023-07-28T04:36:49;4.47;;;3.50;;
6376;SDS011;3221;48.858;10.128;2023-07-28T04:39:21;3.13;;;2.83;;
6376;SDS011;3221;48.858;10.128;2023-07-28T04:41:49;3.10;;;2.80;;
6376;SDS011;3221;48.858;10.128;2023-07-28T04:44:17;4.67;;;3.40;;
6376;SDS011;3221;48.858;10.128;2023-07-28T04:46:47;4.10;;;3.70;;
6376;SDS011;3221;48.858;10.128;2023-07-28T04:49:14;3.83;;;3.43;;
6376;SDS011;3221;48.858;10.128;2023-07-28T04:52:00;4.43;;;3.70;;
6376;SDS011;3221;48.858;10.128;2023-07-28T04:54:46;6.43;;;3.53;;
6376;SDS011;3221;48.858;10.128;2023-07-28T04:57:13;12.63;;;3.53;;
6376;SDS011;3221;48.858;10.128;2023-07-28T04:59:42;3.97;;;3.43;;
6376;SDS011;3221;48.858;10.128;2023-07-28T05:02:10;5.30;;;3.63;;
6376;SDS011;3221;48.858;10.128;2023-07-28T05:04:37;4.77;;;3.50;;
6376;SDS011;3221;48.858;10.128;2023-07-28T05:07:04;4.57;;;3.20;;
6376;SDS011;3221;48.858;10.128;2023-07-28T05:09:31;4.93;;;3.53;;
6376;SDS011;3221;48.858;10.128;2023-07-28T05:11:58;4.03;;;3.20;;
6376;SDS011;3221;48.858;10.128;2023-07-28T05:14:31;3.87;;;3.47;;
6376;SDS011;3221;48.858;10.128;2023-07-28T05:16:58;4.50;;;3.70;;
6376;SDS011;3221;48.858;10.128;2023-07-28T05:19:49;4.23;;;3.80;;
6376;SDS011;3221;48.858;10.128;2023-07-28T05:22:31;5.50;;;3.83;;
6376;SDS011;3221;48.858;10.128;2023-07-28T05:24:58;4.13;;;3.57;;
6376;SDS011;3221;48.858;10.128;2023-07-28T05:27:28;4.00;;;3.37;;
6376;SDS011;3221;48.858;10.128;2023-07-28T05:29:55;5.83;;;3.27;;
6376;SDS011;3221;48.858;10.128;2023-07-28T05:32:22;3.97;;;3.23;;
6376;SDS011;3221;48.858;10.128;2023-07-28T05:35:04;3.80;;;3.40;;
6376;SDS011;3221;48.858;10.128;2023-07-28T05:37:32;5.10;;;3.43;;
6376;SDS011;3221;48.858;10.128;2023-07-28T05:39:59;4.77;;;3.30;;
6376;SDS011;3221;48.858;10.128;2023-07-28T05:42:26;3.93;;;3.13;;
6376;SDS011;3221;48.858;10.128;2023-07-28T05:44:53;3.97;;;3.63;;
6376;SDS011;3221;48.858;10.128;2023-07-28T05:47:21;6.20;;;3.70;;
6376;SDS011;3221;48.858;10.128;2023-07-28T05:49:49;5.13;;;3.77;;
6376;SDS011;3221;48.858;10.128;2023-07-28T05:52:16;5.07;;;3.87;;
6376;SDS011;3221;48.858;10.128;2023-07-28T05:54:44;4.23;;;3.67;;
6376;SDS011;3221;48.858;10.128;2023-07-28T05:57:10;5.00;;;3.80;;
6376;SDS011;3221;48.858;10.128;2023-07-28T05:59:37;4.63;;;3.63;;
6376;SDS011;3221;48.858;10.128;2023-07-28T06:02:04;4.20;;;3.77;;
6376;SDS011;3221;48.858;10.128;2023-07-28T06:04:40;8.83;;;3.97;;
6376;SDS011;3221;48.858;10.128;2023-07-28T06:07:07;4.17;;;3.77;;
6376;SDS011;3221;48.858;10.128;2023-07-28T06:09:35;3.50;;;3.20;;
6376;SDS011;3221;48.858;10.128;2023-07-28T06:12:02;5.13;;;3.53;;
6376;SDS011;3221;48.858;10.128;2023-07-28T06:14:29;4.53;;;3.57;;
6376;SDS011;3221;48.858;10.128;2023-07-28T06:16:57;4.80;;;4.07;;
6376;SDS011;3221;48.858;10.128;2023-07-28T06:19:29;3.90;;;3.60;;
6376;SDS011;3221;48.858;10.128;2023-07-28T06:21:56;5.13;;;3.63;;
6376;SDS011;3221;48.858;10.128;2023-07-28T06:24:23;4.00;;;3.60;;
6376;SDS011;3221;48.858;10.128;2023-07-28T06:26:50;3.93;;;3.53;;
6376;SDS011;3221;48.858;10.128;2023-07-28T06:29:17;5.23;;;3.63;;
6376;SDS011;3221;48.858;10.128;2023-07-28T06:31:44;4.10;;;3.50;;
6376;SDS011;3221;48.858;10.128;2023-07-28T06:34:11;5.77;;;3.97;;
6376;SDS011;3221;48.858;10.128;2023-07-28T06:36:37;3.80;;;3.40;;
6376;SDS011;3221;48.858;10.128;2023-07-28T06:39:07;3.60;;;3.30;;
6376;SDS011;3221;48.858;10.128;2023-07-28T06:41:34;4.17;;;3.23;;
6376;SDS011;3221;48.858;10.128;2023-07-28T06:44:06;6.17;;;3.60;;
6376;SDS011;3221;48.858;10.128;2023-07-28T06:46:34;4.37;;;3.50;;
6376;SDS011;3221;48.858;10.128;2023-07-28T06:49:02;4.57;;;3.77;;
6376;SDS011;3221;48.858;10.128;2023-07-28T06:51:29;3.90;;;3.50;;
6376;SDS011;3221;48.858;10.128;2023-07-28T06:53:56;4.27;;;3.87;;
6376;SDS011;3221;48.858;10.128;2023-07-28T06:56:23;4.00;;;3.60;;
6376;SDS011;3221;48.858;10.128;2023-07-28T06:58:50;4.43;;;3.97;;
6376;SDS011;3221;48.858;10.128;2023-07-28T07:01:30;5.10;;;4.60;;
6376;SDS011;3221;48.858;10.128;2023-07-28T07:03:58;5.00;;;4.60;;
6376;SDS011;3221;48.858;10.128;2023-07-28T07:06:25;4.00;;;3.60;;
6376;SDS011;3221;48.858;10.128;2023-07-28T07:08:52;4.90;;;3.90;;
6376;SDS011;3221;48.858;10.128;2023-07-28T07:11:19;5.40;;;4.47;;
6376;SDS011;3221;48.858;10.128;2023-07-28T07:13:45;4.60;;;4.20;;
6376;SDS011;3221;48.858;10.128;2023-07-28T07:16:13;4.70;;;3.90;;
6376;SDS011;3221;48.858;10.128;2023-07-28T07:18:50;5.87;;;4.43;;
6376;SDS011;3221;48.858;10.128;2023-07-28T07:21:18;5.33;;;4.40;;
6376;SDS011;3221;48.858;10.128;2023-07-28T07:23:45;4.90;;;4.17;;
6376;SDS011;3221;48.858;10.128;2023-07-28T07:26:24;4.83;;;4.27;;
6376;SDS011;3221;48.858;10.128;2023-07-28T07:28:52;6.20;;;4.53;;
6376;SDS011;3221;48.858;10.128;2023-07-28T07:31:19;6.57;;;4.70;;
6376;SDS011;3221;48.858;10.128;2023-07-28T07:33:46;6.37;;;5.00;;
6376;SDS011;3221;48.858;10.128;2023-07-28T07:36:16;6.10;;;5.40;;
6376;SDS011;3221;48.858;10.128;2023-07-28T07:38:45;6.80;;;4.93;;
6376;SDS011;3221;48.858;10.128;2023-07-28T07:41:13;6.93;;;5.83;;
6376;SDS011;3221;48.858;10.128;2023-07-28T07:43:47;5.13;;;4.63;;
6376;SDS011;3221;48.858;10.128;2023-07-28T07:46:15;6.87;;;5.23;;
6376;SDS011;3221;48.858;10.128;2023-07-28T07:48:47;5.60;;;5.10;;
6376;SDS011;3221;48.858;10.128;2023-07-28T07:51:14;7.30;;;5.50;;
6376;SDS011;3221;48.858;10.128;2023-07-28T07:53:41;6.87;;;5.57;;
6376;SDS011;3221;48.858;10.128;2023-07-28T07:56:08;6.00;;;5.00;;
6376;SDS011;3221;48.858;10.128;2023-07-28T07:58:36;7.53;;;6.10;;
6376;SDS011;3221;48.858;10.128;2023-07-28T08:01:03;6.27;;;4.87;;
6376;SDS011;3221;48.858;10.128;2023-07-28T08:03:31;6.80;;;5.47;;
6376;SDS011;3221;48.858;10.128;2023-07-28T08:05:58;6.10;;;5.37;;
6376;SDS011;3221;48.858;10.128;2023-07-28T08:08:25;5.83;;;5.03;;
6376;SDS011;3221;48.858;10.128;2023-07-28T08:10:53;5.63;;;5.00;;
6376;SDS011;3221;48.858;10.128;2023-07-28T08:13:21;5.27;;;4.77;;
6376;SDS011;3221;48.858;10.128;2023-07-28T08:15:48;5.43;;;4.93;;
6376;SDS011;3221;48.858;10.128;2023-07-28T08:18:15;6.00;;;5.40;;
6376;SDS011;3221;48.858;10.128;2023-07-28T08:20:42;6.63;;;5.97;;
6376;SDS011;3221;48.858;10.128;2023-07-28T08:23:08;6.50;;;5.77;;
6376;SDS011;3221;48.858;10.128;2023-07-28T08:25:36;6.07;;;5.47;;
6376;SDS011;3221;48.858;10.128;2023-07-28T08:28:03;5.53;;;5.03;;
6376;SDS011;3221;48.858;10.128;2023-07-28T08:30:30;6.17;;;5.47;;
6376;SDS011;3221;48.858;10.128;2023-07-28T08:32:58;5.70;;;5.20;;
6376;SDS011;3221;48.858;10.128;2023-07-28T08:35:25;5.50;;;5.00;;
6376;SDS011;3221;48.858;10.128;2023-07-28T08:37:52;6.40;;;5.80;;
6376;SDS011;3221;48.858;10.128;2023-07-28T08:40:19;6.07;;;5.47;;
6376;SDS011;3221;48.858;10.128;2023-07-28T08:42:46;5.80;;;5.20;;
6376;SDS011;3221;48.858;10.128;2023-07-28T08:45:15;6.77;;;5.70;;
6376;SDS011;3221;48.858;10.128;2023-07-28T08:47:45;6.00;;;5.00;;
6376;SDS011;3221;48.858;10.128;2023-07-28T08:50:12;5.80;;;5.20;;
6376;SDS011;3221;48.858;10.128;2023-07-28T08:52:38;6.07;;;5.37;;
6376;SDS011;3221;48.858;10.128;2023-07-28T08:55:05;5.90;;;5.30;;
6376;SDS011;3221;48.858;10.128;2023-07-28T08:57:32;5.57;;;4.90;;
6376;SDS011;3221;48.858;10.128;2023-07-28T09:00:06;5.73;;;5.13;;
6376;SDS011;3221;48.858;10.128;2023-07-28T09:02:34;6.07;;;5.47;;
6376;SDS011;3221;48.858;10.128;2023-07-28T09:05:02;8.37;;;6.50;;
6376;SDS011;3221;48.858;10.128;2023-07-28T09:07:33;8.00;;;6.20;;
6376;SDS011;3221;48.858;10.128;2023-07-28T09:10:03;6.30;;;5.23;;
6376;SDS011;3221;48.858;10.128;2023-07-28T09:12:31;6.27;;;5.30;;
6376;SDS011;3221;48.858;10.128;2023-07-28T09:14:58;7.33;;;5.10;;
6376;SDS011;3221;48.858;10.128;2023-07-28T09:17:25;6.23;;;4.90;;
6376;SDS011;3221;48.858;10.128;2023-07-28T09:19:53;6.43;;;5.17;;
6376;SDS011;3221;48.858;10.128;2023-07-28T09:22:21;4.93;;;4.53;;
6376;SDS011;3221;48.858;10.128;2023-07-28T09:24:49;5.27;;;4.77;;
6376;SDS011;3221;48.858;10.128;2023-07-28T09:27:20;7.60;;;5.00;;
6376;SDS011;3221;48.858;10.128;2023-07-28T09:29:52;5.83;;;5.10;;
6376;SDS011;3221;48.858;10.128;2023-07-28T09:32:28;5.70;;;4.90;;
6376;SDS011;3221;48.858;10.128;2023-07-28T09:35:08;5.33;;;4.73;;
6376;SDS011;3221;48.858;10.128;2023-07-28T09:37:37;5.30;;;4.80;;
6376;SDS011;3221;48.858;10.128;2023-07-28T09:40:08;9.67;;;5.47;;
6376;SDS011;3221;48.858;10.128;2023-07-28T09:42:39;5.67;;;5.07;;
6376;SDS011;3221;48.858;10.128;2023-07-28T09:45:11;5.47;;;4.97;;
6376;SDS011;3221;48.858;10.128;2023-07-28T09:47:57;5.03;;;4.53;;
6376;SDS011;3221;48.858;10.128;2023-07-28T09:50:26;5.97;;;5.00;;
6376;SDS011;3221;48.858;10.128;2023-07-28T09:52:54;6.20;;;5.60;;
6376;SDS011;3221;48.858;10.128;2023-07-28T09:55:24;5.47;;;4.97;;
6376;SDS011;3221;48.858;10.128;2023-07-28T09:57:52;5.90;;;5.30;;
6376;SDS011;3221;48.858;10.128;2023-07-28T10:00:22;5.77;;;4.97;;
6376;SDS011;3221;48.858;10.128;2023-07-28T10:02:49;6.10;;;5.10;;
6376;SDS011;3221;48.858;10.128;2023-07-28T10:05:17;5.23;;;4.73;;
6376;SDS011;3221;48.858;10.128;2023-07-28T10:07:44;5.33;;;4.60;;
6376;SDS011;3221;48.858;10.128;2023-07-28T10:10:14;5.90;;;5.00;;
6376;SDS011;3221;48.858;10.128;2023-07-28T10:12:42;5.37;;;4.63;;
6376;SDS011;3221;48.858;10.128;2023-07-28T10:15:13;5.10;;;4.60;;
6376;SDS011;3221;48.858;10.128;2023-07-28T10:17:53;4.73;;;4.33;;
6376;SDS011;3221;48.858;10.128;2023-07-28T10:20:57;4.90;;;4.43;;
6376;SDS011;3221;48.858;10.128;2023-07-28T10:23:21;5.70;;;4.60;;
6376;SDS011;3221;48.858;10.128;2023-07-28T10:25:59;4.97;;;4.47;;
6376;SDS011;3221;48.858;10.128;2023-07-28T10:28:28;7.07;;;4.83;;
6376;SDS011;3221;48.858;10.128;2023-07-28T10:31:08;5.20;;;4.70;;
6376;SDS011;3221;48.858;10.128;2023-07-28T10:33:48;6.07;;;4.50;;
6376;SDS011;3221;48.858;10.128;2023-07-28T10:36:17;4.50;;;4.10;;
6376;SDS011;3221;48.858;10.128;2023-07-28T10:42:02;5.57;;;3.97;;
6376;SDS011;3221;48.858;10.128;2023-07-28T10:44:30;4.43;;;4.00;;
6376;SDS011;3221;48.858;10.128;2023-07-28T10:46:57;4.23;;;3.83;;
6376;SDS011;3221;48.858;10.128;2023-07-28T10:49:24;4.27;;;3.63;;
6376;SDS011;3221;48.858;10.128;2023-07-28T10:51:52;4.57;;;4.10;;
6376;SDS011;3221;48.858;10.128;2023-07-28T10:54:18;4.60;;;4.20;;
6376;SDS011;3221;48.858;10.128;2023-07-28T10:56:46;5.80;;;4.00;;
6376;SDS011;3221;48.858;10.128;2023-07-28T10:59:16;3.90;;;3.60;;
6376;SDS011;3221;48.858;10.128;2023-07-28T11:01:42;4.00;;;3.60;;
6376;SDS011;3221;48.858;10.128;2023-07-28T11:04:17;4.93;;;3.50;;
6376;SDS011;3221;48.858;10.128;2023-07-28T11:06:46;4.67;;;4.20;;
6376;SDS011;3221;48.858;10.128;2023-07-28T11:09:15;6.70;;;4.07;;
6376;SDS011;3221;48.858;10.128;2023-07-28T11:11:43;4.13;;;3.40;;
6376;SDS011;3221;48.858;10.128;2023-07-28T11:14:14;3.60;;;3.30;;
6376;SDS011;3221;48.858;10.128;2023-07-28T11:16:43;3.27;;;2.90;;
6376;SDS011;3221;48.858;10.128;2023-07-28T11:19:16;3.70;;;3.40;;
6376;SDS011;3221;48.858;10.128;2023-07-28T11:21:48;4.27;;;3.60;;
6376;SDS011;3221;48.858;10.128;2023-07-28T11:24:18;3.70;;;3.40;;
6376;SDS011;3221;48.858;10.128;2023-07-28T11:26:47;3.70;;;3.37;;
6376;SDS011;3221;48.858;10.128;2023-07-28T11:29:15;3.77;;;3.13;;
6376;SDS011;3221;48.858;10.128;2023-07-28T11:31:44;3.47;;;3.17;;
6376;SDS011;3221;48.858;10.128;2023-07-28T11:34:14;3.93;;;3.17;;
6376;SDS011;3221;48.858;10.128;2023-07-28T11:36:42;4.10;;;3.00;;
6376;SDS011;3221;48.858;10.128;2023-07-28T11:39:09;3.50;;;3.20;;
6376;SDS011;3221;48.858;10.128;2023-07-28T11:41:37;3.17;;;2.90;;
6376;SDS011;3221;48.858;10.128;2023-07-28T11:44:06;3.27;;;2.97;;
6376;SDS011;3221;48.858;10.128;2023-07-28T11:49:12;3.73;;;3.43;;
6376;SDS011;3221;48.858;10.128;2023-07-28T11:51:46;3.73;;;3.43;;
6376;SDS011;3221;48.858;10.128;2023-07-28T11:54:15;4.00;;;3.60;;
6376;SDS011;3221;48.858;10.128;2023-07-28T11:56:46;3.97;;;3.57;;
6376;SDS011;3221;48.858;10.128;2023-07-28T11:59:17;3.77;;;3.37;;
6376;SDS011;3221;48.858;10.128;2023-07-28T12:02:01;3.40;;;3.07;;
6376;SDS011;3221;48.858;10.128;2023-07-28T12:04:38;3.60;;;3.30;;
6376;SDS011;3221;48.858;10.128;2023-07-28T12:07:14;3.47;;;3.10;;
6376;SDS011;3221;48.858;10.128;2023-07-28T12:12:23;3.50;;;3.20;;
6376;SDS011;3221;48.858;10.128;2023-07-28T12:14:53;4.00;;;3.37;;
6376;SDS011;3221;48.858;10.128;2023-07-28T12:17:33;4.93;;;3.40;;
6376;SDS011;3221;48.858;10.128;2023-07-28T12:20:04;2.80;;;2.57;;
6376;SDS011;3221;48.858;10.128;2023-07-28T12:22:42;3.40;;;2.90;;
6376;SDS011;3221;48.858;10.128;2023-07-28T12:25:10;3.67;;;2.97;;
6376;SDS011;3221;48.858;10.128;2023-07-28T12:27:38;3.50;;;3.20;;
6376;SDS011;3221;48.858;10.128;2023-07-28T12:30:05;3.20;;;2.90;;
6376;SDS011;3221;48.858;10.128;2023-07-28T12:32:42;3.20;;;2.90;;
6376;SDS011;3221;48.858;10.128;2023-07-28T12:35:28;2.73;;;2.53;;
6376;SDS011;3221;48.858;10.128;2023-07-28T12:38:04;2.90;;;2.60;;
6376;SDS011;3221;48.858;10.128;2023-07-28T12:40:34;2.53;;;2.33;;
6376;SDS011;3221;48.858;10.128;2023-07-28T12:43:04;5.43;;;2.90;;
6376;SDS011;3221;48.858;10.128;2023-07-28T12:45:32;4.00;;;2.80;;
6376;SDS011;3221;48.858;10.128;2023-07-28T12:48:02;2.77;;;2.57;;
6376;SDS011;3221;48.858;10.128;2023-07-28T12:50:30;2.70;;;2.50;;
6376;SDS011;3221;48.858;10.128;2023-07-28T12:53:07;2.70;;;2.50;;
6376;SDS011;3221;48.858;10.128;2023-07-28T12:55:42;4.23;;;2.90;;
6376;SDS011;3221;48.858;10.128;2023-07-28T12:58:12;3.33;;;2.37;;
6376;SDS011;3221;48.858;10.128;2023-07-28T13:00:41;2.60;;;2.30;;
6376;SDS011;3221;48.858;10.128;2023-07-28T13:03:11;2.53;;;2.33;;
6376;SDS011;3221;48.858;10.128;2023-07-28T13:05:39;4.10;;;2.60;;
6376;SDS011;3221;48.858;10.128;2023-07-28T13:08:10;2.83;;;2.27;;
6376;SDS011;3221;48.858;10.128;2023-07-28T13:10:36;2.60;;;2.40;;
6376;SDS011;3221;48.858;10.128;2023-07-28T13:13:06;2.43;;;2.23;;
6376;SDS011;3221;48.858;10.128;2023-07-28T13:15:39;3.33;;;2.57;;
6376;SDS011;3221;48.858;10.128;2023-07-28T13:18:06;3.10;;;2.57;;
6376;SDS011;3221;48.858;10.128;2023-07-28T13:20:33;2.70;;;2.40;;
6376;SDS011;3221;48.858;10.128;2023-07-28T13:23:00;2.97;;;2.20;;
6376;SDS011;3221;48.858;10.128;2023-07-28T13:25:27;3.30;;;2.83;;
6376;SDS011;3221;48.858;10.128;2023-07-28T13:27:54;2.33;;;2.10;;
6376;SDS011;3221;48.858;10.128;2023-07-28T13:30:21;2.90;;;2.30;;
6376;SDS011;3221;48.858;10.128;2023-07-28T13:32:48;2.20;;;2.00;;
6376;SDS011;3221;48.858;10.128;2023-07-28T13:35:18;2.07;;;1.93;;
6376;SDS011;3221;48.858;10.128;2023-07-28T13:37:45;2.03;;;1.90;;
6376;SDS011;3221;48.858;10.128;2023-07-28T13:40:11;2.20;;;2.00;;
6376;SDS011;3221;48.858;10.128;2023-07-28T13:42:39;2.53;;;2.33;;
6376;SDS011;3221;48.858;10.128;2023-07-28T13:45:06;2.20;;;2.00;;
6376;SDS011;3221;48.858;10.128;2023-07-28T13:47:34;2.60;;;2.10;;
6376;SDS011;3221;48.858;10.128;2023-07-28T13:50:01;2.37;;;2.17;;
6376;SDS011;3221;48.858;10.128;2023-07-28T13:52:28;2.57;;;2.23;;
6376;SDS011;3221;48.858;10.128;2023-07-28T13:54:56;2.33;;;2.13;;
6376;SDS011;3221;48.858;10.128;2023-07-28T13:57:26;2.40;;;2.20;;
6376;SDS011;3221;48.858;10.128;2023-07-28T13:59:53;2.63;;;2.40;;
6376;SDS011;3221;48.858;10.128;2023-07-28T14:02:20;2.40;;;2.20;;
6376;SDS011;3221;48.858;10.128;2023-07-28T14:04:47;2.97;;;2.30;;
6376;SDS011;3221;48.858;10.128;2023-07-28T14:07:14;2.40;;;2.20;;
6376;SDS011;3221;48.858;10.128;2023-07-28T14:09:41;2.60;;;2.30;;
6376;SDS011;3221;48.858;10.128;2023-07-28T14:12:08;2.70;;;2.50;;
6376;SDS011;3221;48.858;10.128;2023-07-28T14:14:35;2.70;;;2.50;;
6376;SDS011;3221;48.858;10.128;2023-07-28T14:17:02;4.37;;;2.70;;
6376;SDS011;3221;48.858;10.128;2023-07-28T14:19:30;2.60;;;2.40;;
6376;SDS011;3221;48.858;10.128;2023-07-28T14:21:57;2.70;;;2.50;;
6376;SDS011;3221;48.858;10.128;2023-07-28T14:24:24;3.27;;;2.97;;
6376;SDS011;3221;48.858;10.128;2023-07-28T14:26:51;4.43;;;2.60;;
6376;SDS011;3221;48.858;10.128;2023-07-28T14:29:18;3.60;;;2.80;;
6376;SDS011;3221;48.858;10.128;2023-07-28T14:31:46;2.70;;;2.50;;
6376;SDS011;3221;48.858;10.128;2023-07-28T14:34:13;3.63;;;2.67;;
6376;SDS011;3221;48.858;10.128;2023-07-28T14:36:40;3.43;;;2.90;;
6376;SDS011;3221;48.858;10.128;2023-07-28T14:39:07;3.53;;;2.97;;
6376;SDS011;3221;48.858;10.128;2023-07-28T14:41:35;5.30;;;3.43;;
6376;SDS011;3221;48.858;10.128;2023-07-28T14:44:02;4.90;;;3.30;;
6376;SDS011;3221;48.858;10.128;2023-07-28T14:46:30;3.30;;;3.00;;
6376;SDS011;3221;48.858;10.128;2023-07-28T14:48:57;3.93;;;3.03;;
6376;SDS011;3221;48.858;10.128;2023-07-28T14:51:24;3.53;;;2.93;;
6376;SDS011;3221;48.858;10.128;2023-07-28T14:53:51;4.83;;;3.20;;
6376;SDS011;3221;48.858;10.128;2023-07-28T14:56:18;3.33;;;3.03;;
6376;SDS011;3221;48.858;10.128;2023-07-28T14:58:48;3.80;;;3.10;;
6376;SDS011;3221;48.858;10.128;2023-07-28T15:01:17;3.97;;;3.10;;
6376;SDS011;3221;48.858;10.128;2023-07-28T15:03:44;4.30;;;3.50;;
6376;SDS011;3221;48.858;10.128;2023-07-28T15:06:11;3.83;;;3.40;;
6376;SDS011;3221;48.858;10.128;2023-07-28T15:08:38;3.90;;;3.20;;
6376;SDS011;3221;48.858;10.128;2023-07-28T15:11:05;5.23;;;3.80;;
6376;SDS011;3221;48.858;10.128;2023-07-28T15:13:32;3.30;;;3.00;;
6376;SDS011;3221;48.858;10.128;2023-07-28T15:15:59;3.53;;;3.20;;
6376;SDS011;3221;48.858;10.128;2023-07-28T15:18:26;3.60;;;3.20;;
6376;SDS011;3221;48.858;10.128;2023-07-28T15:20:53;3.33;;;2.97;;